sensor_id;sensor_type;location;lat;lon;timestamp;P1;durP1;ratioP1;P2;durP2;ratioP2
39094;SDS011;24840;47.508;19.376;2022-11-15T00:01:06;37.83;;;16.50;;
39094;SDS011;24840;47.508;19.376;2022-11-15T00:03:41;44.77;;;17.13;;
39094;SDS011;24840;47.508;19.376;2022-11-15T00:06:15;27.03;;;15.67;;
39094;SDS011;24840;47.508;19.376;2022-11-15T00:08:49;115.47;;;20.93;;
39094;SDS011;24840;47.508;19.376;2022-11-15T00:11:15;32.93;;;16.77;;
39094;SDS011;24840;47.508;19.376;2022-11-15T00:13:48;36.17;;;16.83;;
39094;SDS011;24840;47.508;19.376;2022-11-15T00:16:23;28.30;;;15.83;;
39094;SDS011;24840;47.508;19.376;2022-11-15T00:18:53;40.93;;;16.00;;
39094;SDS011;24840;47.508;19.376;2022-11-15T00:21:30;19.43;;;13.23;;
39094;SDS011;24840;47.508;19.376;2022-11-15T00:24:02;26.90;;;16.27;;
39094;SDS011;24840;47.508;19.376;2022-11-15T00:26:30;39.03;;;15.90;;
39094;SDS011;24840;47.508;19.376;2022-11-15T00:28:56;28.80;;;16.93;;
39094;SDS011;24840;47.508;19.376;2022-11-15T00:31:22;29.90;;;15.67;;
39094;SDS011;24840;47.508;19.376;2022-11-15T00:33:48;31.37;;;15.20;;
39094;SDS011;24840;47.508;19.376;2022-11-15T00:36:14;40.77;;;15.90;;
39094;SDS011;24840;47.508;19.376;2022-11-15T00:38:40;32.93;;;17.47;;
39094;SDS011;24840;47.508;19.376;2022-11-15T00:41:07;28.87;;;16.47;;
39094;SDS011;24840;47.508;19.376;2022-11-15T00:43:33;21.97;;;17.93;;
39094;SDS011;24840;47.508;19.376;2022-11-15T00:46:00;22.07;;;16.63;;
39094;SDS011;24840;47.508;19.376;2022-11-15T00:48:27;32.93;;;19.47;;
39094;SDS011;24840;47.508;19.376;2022-11-15T00:50:53;26.47;;;18.20;;
39094;SDS011;24840;47.508;19.376;2022-11-15T00:53:19;23.63;;;17.17;;
39094;SDS011;24840;47.508;19.376;2022-11-15T00:55:46;32.40;;;17.80;;
39094;SDS011;24840;47.508;19.376;2022-11-15T00:58:11;24.77;;;17.77;;
39094;SDS011;24840;47.508;19.376;2022-11-15T01:00:37;21.63;;;17.40;;
39094;SDS011;24840;47.508;19.376;2022-11-15T01:03:03;25.77;;;17.00;;
39094;SDS011;24840;47.508;19.376;2022-11-15T01:05:29;29.10;;;17.50;;
39094;SDS011;24840;47.508;19.376;2022-11-15T01:07:55;22.67;;;17.83;;
39094;SDS011;24840;47.508;19.376;2022-11-15T01:10:22;29.43;;;18.00;;
39094;SDS011;24840;47.508;19.376;2022-11-15T01:12:49;25.40;;;17.53;;
39094;SDS011;24840;47.508;19.376;2022-11-15T01:15:15;26.13;;;17.23;;
39094;SDS011;24840;47.508;19.376;2022-11-15T01:17:41;26.43;;;18.50;;
39094;SDS011;24840;47.508;19.376;2022-11-15T01:20:07;21.13;;;17.10;;
39094;SDS011;24840;47.508;19.376;2022-11-15T01:22:33;24.90;;;19.20;;
39094;SDS011;24840;47.508;19.376;2022-11-15T01:24:59;26.37;;;19.20;;
39094;SDS011;24840;47.508;19.376;2022-11-15T01:27:25;22.50;;;17.53;;
39094;SDS011;24840;47.508;19.376;2022-11-15T01:29:51;23.93;;;17.70;;
39094;SDS011;24840;47.508;19.376;2022-11-15T01:32:17;26.83;;;18.93;;
39094;SDS011;24840;47.508;19.376;2022-11-15T01:34:43;24.73;;;18.20;;
39094;SDS011;24840;47.508;19.376;2022-11-15T01:37:09;26.37;;;18.60;;
39094;SDS011;24840;47.508;19.376;2022-11-15T01:39:35;21.93;;;17.57;;
39094;SDS011;24840;47.508;19.376;2022-11-15T01:42:01;26.07;;;18.30;;
39094;SDS011;24840;47.508;19.376;2022-11-15T01:47:00;20.63;;;17.38;;
39094;SDS011;24840;47.508;19.376;2022-11-15T01:49:57;24.93;;;18.00;;
39094;SDS011;24840;47.508;19.376;2022-11-15T01:52:30;23.63;;;17.37;;
39094;SDS011;24840;47.508;19.376;2022-11-15T01:55:08;29.73;;;19.00;;
39094;SDS011;24840;47.508;19.376;2022-11-15T01:57:44;25.93;;;18.90;;
39094;SDS011;24840;47.508;19.376;2022-11-15T02:00:13;22.93;;;17.93;;
39094;SDS011;24840;47.508;19.376;2022-11-15T02:02:40;22.73;;;17.30;;
39094;SDS011;24840;47.508;19.376;2022-11-15T02:05:06;21.23;;;17.63;;
39094;SDS011;24840;47.508;19.376;2022-11-15T02:07:32;21.87;;;17.47;;
39094;SDS011;24840;47.508;19.376;2022-11-15T02:10:02;21.07;;;17.20;;
39094;SDS011;24840;47.508;19.376;2022-11-15T02:15:08;20.57;;;16.40;;
39094;SDS011;24840;47.508;19.376;2022-11-15T02:36:58;17.83;;;14.87;;
39094;SDS011;24840;47.508;19.376;2022-11-15T02:39:49;26.97;;;18.03;;
39094;SDS011;24840;47.508;19.376;2022-11-15T02:42:25;19.97;;;16.87;;
39094;SDS011;24840;47.508;19.376;2022-11-15T02:45:17;21.30;;;16.47;;
39094;SDS011;24840;47.508;19.376;2022-11-15T02:47:47;22.37;;;17.47;;
39094;SDS011;24840;47.508;19.376;2022-11-15T02:50:17;21.20;;;17.47;;
39094;SDS011;24840;47.508;19.376;2022-11-15T02:52:46;19.37;;;16.17;;
39094;SDS011;24840;47.508;19.376;2022-11-15T02:57:57;19.73;;;17.17;;
39094;SDS011;24840;47.508;19.376;2022-11-15T03:01:00;19.67;;;16.73;;
39094;SDS011;24840;47.508;19.376;2022-11-15T03:06:22;23.80;;;18.20;;
39094;SDS011;24840;47.508;19.376;2022-11-15T03:09:02;25.40;;;18.92;;
39094;SDS011;24840;47.508;19.376;2022-11-15T03:11:56;26.87;;;19.17;;
39094;SDS011;24840;47.508;19.376;2022-11-15T03:14:32;23.27;;;17.43;;
39094;SDS011;24840;47.508;19.376;2022-11-15T03:19:48;24.45;;;19.30;;
39094;SDS011;24840;47.508;19.376;2022-11-15T03:22:20;25.97;;;19.57;;
39094;SDS011;24840;47.508;19.376;2022-11-15T03:24:50;23.13;;;17.77;;
39094;SDS011;24840;47.508;19.376;2022-11-15T03:27:21;24.75;;;19.13;;
39094;SDS011;24840;47.508;19.376;2022-11-15T03:29:50;26.93;;;19.03;;
39094;SDS011;24840;47.508;19.376;2022-11-15T03:32:27;22.03;;;17.67;;
39094;SDS011;24840;47.508;19.376;2022-11-15T03:35:01;24.37;;;17.87;;
39094;SDS011;24840;47.508;19.376;2022-11-15T03:37:49;25.93;;;18.37;;
39094;SDS011;24840;47.508;19.376;2022-11-15T03:40:22;22.50;;;17.23;;
39094;SDS011;24840;47.508;19.376;2022-11-15T03:45:51;21.00;;;17.53;;
39094;SDS011;24840;47.508;19.376;2022-11-15T03:48:25;22.93;;;17.77;;
39094;SDS011;24840;47.508;19.376;2022-11-15T03:50:56;26.33;;;18.20;;
39094;SDS011;24840;47.508;19.376;2022-11-15T03:53:22;25.83;;;18.30;;
39094;SDS011;24840;47.508;19.376;2022-11-15T03:55:48;26.30;;;19.33;;
39094;SDS011;24840;47.508;19.376;2022-11-15T03:58:13;22.67;;;18.17;;
39094;SDS011;24840;47.508;19.376;2022-11-15T04:00:39;27.27;;;19.67;;
39094;SDS011;24840;47.508;19.376;2022-11-15T04:03:05;22.57;;;18.17;;
39094;SDS011;24840;47.508;19.376;2022-11-15T04:05:33;23.60;;;18.47;;
39094;SDS011;24840;47.508;19.376;2022-11-15T04:07:59;23.90;;;18.70;;
39094;SDS011;24840;47.508;19.376;2022-11-15T04:10:25;24.50;;;18.37;;
39094;SDS011;24840;47.508;19.376;2022-11-15T04:12:50;23.63;;;17.87;;
39094;SDS011;24840;47.508;19.376;2022-11-15T04:15:17;23.87;;;18.07;;
39094;SDS011;24840;47.508;19.376;2022-11-15T04:20:21;32.13;;;20.67;;
39094;SDS011;24840;47.508;19.376;2022-11-15T04:23:12;26.77;;;19.93;;
39094;SDS011;24840;47.508;19.376;2022-11-15T04:26:02;24.50;;;18.60;;
39094;SDS011;24840;47.508;19.376;2022-11-15T04:30:59;26.53;;;18.77;;
39094;SDS011;24840;47.508;19.376;2022-11-15T04:33:25;27.17;;;18.50;;
39094;SDS011;24840;47.508;19.376;2022-11-15T04:35:51;26.27;;;19.23;;
39094;SDS011;24840;47.508;19.376;2022-11-15T04:38:35;25.77;;;19.53;;
39094;SDS011;24840;47.508;19.376;2022-11-15T04:41:02;25.57;;;19.13;;
39094;SDS011;24840;47.508;19.376;2022-11-15T04:43:28;24.83;;;19.50;;
39094;SDS011;24840;47.508;19.376;2022-11-15T04:45:54;25.77;;;19.37;;
39094;SDS011;24840;47.508;19.376;2022-11-15T04:48:20;24.80;;;18.93;;
39094;SDS011;24840;47.508;19.376;2022-11-15T04:50:49;28.87;;;19.93;;
39094;SDS011;24840;47.508;19.376;2022-11-15T04:53:15;27.70;;;20.27;;
39094;SDS011;24840;47.508;19.376;2022-11-15T04:55:43;27.97;;;20.30;;
39094;SDS011;24840;47.508;19.376;2022-11-15T04:58:12;29.47;;;21.80;;
39094;SDS011;24840;47.508;19.376;2022-11-15T05:00:38;29.27;;;18.47;;
39094;SDS011;24840;47.508;19.376;2022-11-15T05:03:05;24.10;;;18.17;;
39094;SDS011;24840;47.508;19.376;2022-11-15T05:05:49;28.67;;;23.20;;
39094;SDS011;24840;47.508;19.376;2022-11-15T05:08:15;28.50;;;22.73;;
39094;SDS011;24840;47.508;19.376;2022-11-15T05:10:41;25.33;;;20.53;;
39094;SDS011;24840;47.508;19.376;2022-11-15T05:13:07;29.17;;;20.33;;
39094;SDS011;24840;47.508;19.376;2022-11-15T05:15:33;28.27;;;21.83;;
39094;SDS011;24840;47.508;19.376;2022-11-15T05:17:59;25.53;;;20.13;;
39094;SDS011;24840;47.508;19.376;2022-11-15T05:20:27;28.23;;;21.67;;
39094;SDS011;24840;47.508;19.376;2022-11-15T05:22:53;27.23;;;21.83;;
39094;SDS011;24840;47.508;19.376;2022-11-15T05:25:22;29.77;;;22.70;;
39094;SDS011;24840;47.508;19.376;2022-11-15T05:30:18;29.67;;;23.40;;
39094;SDS011;24840;47.508;19.376;2022-11-15T05:32:44;35.90;;;23.63;;
39094;SDS011;24840;47.508;19.376;2022-11-15T05:35:17;32.77;;;24.20;;
39094;SDS011;24840;47.508;19.376;2022-11-15T05:37:46;29.73;;;23.27;;
39094;SDS011;24840;47.508;19.376;2022-11-15T05:40:13;31.13;;;24.37;;
39094;SDS011;24840;47.508;19.376;2022-11-15T05:42:39;30.03;;;23.43;;
39094;SDS011;24840;47.508;19.376;2022-11-15T05:45:06;33.67;;;25.93;;
39094;SDS011;24840;47.508;19.376;2022-11-15T05:47:33;31.07;;;23.87;;
39094;SDS011;24840;47.508;19.376;2022-11-15T05:50:01;47.73;;;24.77;;
39094;SDS011;24840;47.508;19.376;2022-11-15T05:52:28;31.53;;;25.50;;
39094;SDS011;24840;47.508;19.376;2022-11-15T05:54:56;33.87;;;25.63;;
39094;SDS011;24840;47.508;19.376;2022-11-15T05:57:24;29.77;;;25.10;;
39094;SDS011;24840;47.508;19.376;2022-11-15T05:59:50;33.00;;;24.13;;
39094;SDS011;24840;47.508;19.376;2022-11-15T06:02:17;31.37;;;23.60;;
39094;SDS011;24840;47.508;19.376;2022-11-15T06:04:43;29.60;;;24.80;;
39094;SDS011;24840;47.508;19.376;2022-11-15T06:07:09;33.80;;;26.43;;
39094;SDS011;24840;47.508;19.376;2022-11-15T06:09:34;32.90;;;26.70;;
39094;SDS011;24840;47.508;19.376;2022-11-15T06:12:00;34.17;;;27.53;;
39094;SDS011;24840;47.508;19.376;2022-11-15T06:14:26;39.13;;;27.70;;
39094;SDS011;24840;47.508;19.376;2022-11-15T06:16:52;35.13;;;28.30;;
39094;SDS011;24840;47.508;19.376;2022-11-15T06:19:18;36.53;;;28.03;;
39094;SDS011;24840;47.508;19.376;2022-11-15T06:21:44;34.50;;;26.80;;
39094;SDS011;24840;47.508;19.376;2022-11-15T06:24:10;32.63;;;26.30;;
39094;SDS011;24840;47.508;19.376;2022-11-15T06:26:36;34.63;;;27.07;;
39094;SDS011;24840;47.508;19.376;2022-11-15T06:29:02;35.47;;;28.10;;
39094;SDS011;24840;47.508;19.376;2022-11-15T06:31:29;37.40;;;28.60;;
39094;SDS011;24840;47.508;19.376;2022-11-15T06:33:55;41.77;;;30.40;;
39094;SDS011;24840;47.508;19.376;2022-11-15T06:36:21;43.00;;;31.67;;
39094;SDS011;24840;47.508;19.376;2022-11-15T06:38:48;36.13;;;27.77;;
39094;SDS011;24840;47.508;19.376;2022-11-15T06:41:14;43.03;;;31.77;;
39094;SDS011;24840;47.508;19.376;2022-11-15T06:43:42;42.70;;;32.00;;
39094;SDS011;24840;47.508;19.376;2022-11-15T06:46:08;43.67;;;30.40;;
39094;SDS011;24840;47.508;19.376;2022-11-15T06:48:34;38.97;;;31.83;;
39094;SDS011;24840;47.508;19.376;2022-11-15T06:51:01;42.27;;;31.33;;
39094;SDS011;24840;47.508;19.376;2022-11-15T06:53:29;42.57;;;32.93;;
39094;SDS011;24840;47.508;19.376;2022-11-15T06:55:59;40.87;;;30.97;;
39094;SDS011;24840;47.508;19.376;2022-11-15T06:58:26;36.37;;;27.60;;
39094;SDS011;24840;47.508;19.376;2022-11-15T07:00:52;47.07;;;33.07;;
39094;SDS011;24840;47.508;19.376;2022-11-15T07:03:18;46.37;;;33.43;;
39094;SDS011;24840;47.508;19.376;2022-11-15T07:05:51;43.33;;;31.93;;
39094;SDS011;24840;47.508;19.376;2022-11-15T07:08:21;44.40;;;31.67;;
39094;SDS011;24840;47.508;19.376;2022-11-15T07:10:48;41.73;;;31.70;;
39094;SDS011;24840;47.508;19.376;2022-11-15T07:13:14;40.80;;;29.60;;
39094;SDS011;24840;47.508;19.376;2022-11-15T07:15:40;37.13;;;30.27;;
39094;SDS011;24840;47.508;19.376;2022-11-15T07:18:06;42.40;;;32.50;;
39094;SDS011;24840;47.508;19.376;2022-11-15T07:20:31;42.60;;;32.50;;
39094;SDS011;24840;47.508;19.376;2022-11-15T07:23:01;43.13;;;32.10;;
39094;SDS011;24840;47.508;19.376;2022-11-15T07:25:28;39.37;;;30.77;;
39094;SDS011;24840;47.508;19.376;2022-11-15T07:27:55;36.57;;;29.10;;
39094;SDS011;24840;47.508;19.376;2022-11-15T07:30:21;34.90;;;26.43;;
39094;SDS011;24840;47.508;19.376;2022-11-15T07:32:51;38.07;;;29.03;;
39094;SDS011;24840;47.508;19.376;2022-11-15T07:35:18;38.20;;;25.63;;
39094;SDS011;24840;47.508;19.376;2022-11-15T07:37:44;34.00;;;27.00;;
39094;SDS011;24840;47.508;19.376;2022-11-15T07:40:28;35.00;;;25.77;;
39094;SDS011;24840;47.508;19.376;2022-11-15T07:43:00;35.23;;;26.33;;
39094;SDS011;24840;47.508;19.376;2022-11-15T07:45:29;35.27;;;28.47;;
39094;SDS011;24840;47.508;19.376;2022-11-15T07:47:56;33.50;;;26.70;;
39094;SDS011;24840;47.508;19.376;2022-11-15T07:50:22;30.13;;;26.80;;
39094;SDS011;24840;47.508;19.376;2022-11-15T07:52:58;32.93;;;24.50;;
39094;SDS011;24840;47.508;19.376;2022-11-15T07:55:26;30.27;;;24.63;;
39094;SDS011;24840;47.508;19.376;2022-11-15T07:57:59;31.97;;;25.53;;
39094;SDS011;24840;47.508;19.376;2022-11-15T08:00:26;37.07;;;27.10;;
39094;SDS011;24840;47.508;19.376;2022-11-15T08:02:52;31.67;;;25.70;;
39094;SDS011;24840;47.508;19.376;2022-11-15T08:05:26;30.47;;;25.37;;
39094;SDS011;24840;47.508;19.376;2022-11-15T08:07:52;31.97;;;25.77;;
39094;SDS011;24840;47.508;19.376;2022-11-15T08:10:19;37.00;;;27.50;;
39094;SDS011;24840;47.508;19.376;2022-11-15T08:12:46;33.57;;;27.03;;
39094;SDS011;24840;47.508;19.376;2022-11-15T08:15:12;37.07;;;27.13;;
39094;SDS011;24840;47.508;19.376;2022-11-15T08:17:38;31.10;;;25.43;;
39094;SDS011;24840;47.508;19.376;2022-11-15T08:20:06;32.60;;;25.07;;
39094;SDS011;24840;47.508;19.376;2022-11-15T08:22:35;29.83;;;25.30;;
39094;SDS011;24840;47.508;19.376;2022-11-15T08:25:02;32.07;;;25.87;;
39094;SDS011;24840;47.508;19.376;2022-11-15T08:27:28;30.00;;;24.70;;
39094;SDS011;24840;47.508;19.376;2022-11-15T08:29:54;31.23;;;24.60;;
39094;SDS011;24840;47.508;19.376;2022-11-15T08:32:21;38.77;;;24.77;;
39094;SDS011;24840;47.508;19.376;2022-11-15T08:34:47;28.40;;;24.50;;
39094;SDS011;24840;47.508;19.376;2022-11-15T08:37:13;33.30;;;24.77;;
39094;SDS011;24840;47.508;19.376;2022-11-15T08:39:39;29.63;;;25.03;;
39094;SDS011;24840;47.508;19.376;2022-11-15T08:42:05;31.47;;;25.60;;
39094;SDS011;24840;47.508;19.376;2022-11-15T08:44:32;27.37;;;24.10;;
39094;SDS011;24840;47.508;19.376;2022-11-15T08:46:58;31.20;;;22.10;;
39094;SDS011;24840;47.508;19.376;2022-11-15T08:49:25;28.70;;;23.17;;
39094;SDS011;24840;47.508;19.376;2022-11-15T08:51:53;32.57;;;26.83;;
39094;SDS011;24840;47.508;19.376;2022-11-15T08:54:19;38.30;;;32.00;;
39094;SDS011;24840;47.508;19.376;2022-11-15T08:56:45;37.57;;;29.37;;
39094;SDS011;24840;47.508;19.376;2022-11-15T08:59:11;35.80;;;27.57;;
39094;SDS011;24840;47.508;19.376;2022-11-15T09:01:37;28.00;;;23.50;;
39094;SDS011;24840;47.508;19.376;2022-11-15T09:04:03;33.73;;;26.83;;
39094;SDS011;24840;47.508;19.376;2022-11-15T09:06:29;28.43;;;24.43;;
39094;SDS011;24840;47.508;19.376;2022-11-15T09:08:56;27.57;;;23.73;;
39094;SDS011;24840;47.508;19.376;2022-11-15T09:11:22;26.43;;;23.13;;
39094;SDS011;24840;47.508;19.376;2022-11-15T09:13:49;26.08;;;23.23;;
39094;SDS011;24840;47.508;19.376;2022-11-15T09:16:16;29.10;;;24.57;;
39094;SDS011;24840;47.508;19.376;2022-11-15T09:18:42;30.37;;;24.63;;
39094;SDS011;24840;47.508;19.376;2022-11-15T09:21:09;30.77;;;24.80;;
39094;SDS011;24840;47.508;19.376;2022-11-15T09:23:35;27.40;;;23.03;;
39094;SDS011;24840;47.508;19.376;2022-11-15T09:26:02;27.47;;;22.53;;
39094;SDS011;24840;47.508;19.376;2022-11-15T09:28:29;29.17;;;23.65;;
39094;SDS011;24840;47.508;19.376;2022-11-15T09:31:00;30.37;;;23.50;;
39094;SDS011;24840;47.508;19.376;2022-11-15T09:33:28;27.63;;;23.70;;
39094;SDS011;24840;47.508;19.376;2022-11-15T09:35:54;30.40;;;23.90;;
39094;SDS011;24840;47.508;19.376;2022-11-15T09:38:24;27.92;;;24.83;;
39094;SDS011;24840;47.508;19.376;2022-11-15T09:40:52;32.90;;;25.97;;
39094;SDS011;24840;47.508;19.376;2022-11-15T09:49:15;29.85;;;24.50;;
39094;SDS011;24840;47.508;19.376;2022-11-15T09:51:45;30.85;;;24.75;;
39094;SDS011;24840;47.508;19.376;2022-11-15T09:54:31;27.13;;;24.13;;
39094;SDS011;24840;47.508;19.376;2022-11-15T09:57:04;25.53;;;22.77;;
39094;SDS011;24840;47.508;19.376;2022-11-15T10:05:00;29.73;;;24.98;;
39094;SDS011;24840;47.508;19.376;2022-11-15T10:07:31;28.20;;;23.02;;
39094;SDS011;24840;47.508;19.376;2022-11-15T10:10:25;28.88;;;23.92;;
39094;SDS011;24840;47.508;19.376;2022-11-15T10:12:59;26.73;;;22.17;;
39094;SDS011;24840;47.508;19.376;2022-11-15T10:15:25;27.83;;;23.70;;
39094;SDS011;24840;47.508;19.376;2022-11-15T10:18:06;27.83;;;23.25;;
39094;SDS011;24840;47.508;19.376;2022-11-15T10:20:47;25.15;;;21.80;;
39094;SDS011;24840;47.508;19.376;2022-11-15T10:23:19;26.92;;;21.73;;
39094;SDS011;24840;47.508;19.376;2022-11-15T10:25:47;25.75;;;22.42;;
39094;SDS011;24840;47.508;19.376;2022-11-15T10:28:21;26.15;;;22.65;;
39094;SDS011;24840;47.508;19.376;2022-11-15T10:30:55;25.88;;;23.10;;
39094;SDS011;24840;47.508;19.376;2022-11-15T10:36:21;26.38;;;22.15;;
39094;SDS011;24840;47.508;19.376;2022-11-15T10:41:23;25.73;;;21.75;;
39094;SDS011;24840;47.508;19.376;2022-11-15T10:46:34;35.63;;;24.17;;
39094;SDS011;24840;47.508;19.376;2022-11-15T10:49:21;26.65;;;23.75;;
39094;SDS011;24840;47.508;19.376;2022-11-15T10:51:54;26.73;;;23.27;;
39094;SDS011;24840;47.508;19.376;2022-11-15T10:54:25;28.20;;;24.13;;
39094;SDS011;24840;47.508;19.376;2022-11-15T10:56:57;28.55;;;23.27;;
39094;SDS011;24840;47.508;19.376;2022-11-15T10:59:31;35.60;;;24.15;;
39094;SDS011;24840;47.508;19.376;2022-11-15T11:02:00;30.98;;;24.73;;
39094;SDS011;24840;47.508;19.376;2022-11-15T11:04:26;28.80;;;23.10;;
39094;SDS011;24840;47.508;19.376;2022-11-15T11:06:54;43.90;;;23.42;;
39094;SDS011;24840;47.508;19.376;2022-11-15T11:11:54;30.63;;;21.77;;
39094;SDS011;24840;47.508;19.376;2022-11-15T11:14:21;35.63;;;23.45;;
39094;SDS011;24840;47.508;19.376;2022-11-15T11:30:32;26.27;;;22.52;;
39094;SDS011;24840;47.508;19.376;2022-11-15T11:39:11;31.13;;;25.45;;
39094;SDS011;24840;47.508;19.376;2022-11-15T11:44:42;28.60;;;23.95;;
39094;SDS011;24840;47.508;19.376;2022-11-15T11:47:29;30.27;;;25.80;;
39094;SDS011;24840;47.508;19.376;2022-11-15T11:50:00;28.95;;;25.00;;
39094;SDS011;24840;47.508;19.376;2022-11-15T11:53:00;26.98;;;23.58;;
39094;SDS011;24840;47.508;19.376;2022-11-15T11:55:41;25.90;;;20.52;;
39094;SDS011;24840;47.508;19.376;2022-11-15T12:00:55;20.88;;;18.67;;
39094;SDS011;24840;47.508;19.376;2022-11-15T12:03:30;19.98;;;17.92;;
39094;SDS011;24840;47.508;19.376;2022-11-15T12:09:13;23.70;;;20.23;;
39094;SDS011;24840;47.508;19.376;2022-11-15T12:14:22;21.15;;;19.00;;
39094;SDS011;24840;47.508;19.376;2022-11-15T12:16:54;22.10;;;19.52;;
39094;SDS011;24840;47.508;19.376;2022-11-15T12:19:20;27.17;;;22.65;;
39094;SDS011;24840;47.508;19.376;2022-11-15T12:21:54;23.73;;;19.50;;
39094;SDS011;24840;47.508;19.376;2022-11-15T12:24:38;25.10;;;22.30;;
39094;SDS011;24840;47.508;19.376;2022-11-15T12:27:18;29.83;;;23.80;;
39094;SDS011;24840;47.508;19.376;2022-11-15T12:29:58;27.17;;;23.33;;
39094;SDS011;24840;47.508;19.376;2022-11-15T12:32:33;29.70;;;24.23;;
39094;SDS011;24840;47.508;19.376;2022-11-15T12:35:03;26.10;;;22.47;;
39094;SDS011;24840;47.508;19.376;2022-11-15T12:42:36;27.20;;;24.02;;
39094;SDS011;24840;47.508;19.376;2022-11-15T12:45:52;29.52;;;25.77;;
39094;SDS011;24840;47.508;19.376;2022-11-15T13:01:09;34.70;;;27.17;;
39094;SDS011;24840;47.508;19.376;2022-11-15T13:03:36;32.60;;;25.73;;
39094;SDS011;24840;47.508;19.376;2022-11-15T13:06:41;28.83;;;24.73;;
39094;SDS011;24840;47.508;19.376;2022-11-15T13:14:49;32.65;;;26.35;;
39094;SDS011;24840;47.508;19.376;2022-11-15T13:19:46;31.58;;;26.15;;
39094;SDS011;24840;47.508;19.376;2022-11-15T13:22:13;30.40;;;24.63;;
39094;SDS011;24840;47.508;19.376;2022-11-15T13:24:58;29.15;;;25.35;;
39094;SDS011;24840;47.508;19.376;2022-11-15T13:27:26;29.50;;;24.20;;
39094;SDS011;24840;47.508;19.376;2022-11-15T13:29:52;33.58;;;25.88;;
39094;SDS011;24840;47.508;19.376;2022-11-15T13:32:18;30.38;;;25.90;;
39094;SDS011;24840;47.508;19.376;2022-11-15T13:34:46;29.42;;;25.30;;
39094;SDS011;24840;47.508;19.376;2022-11-15T13:39:49;25.67;;;22.00;;
39094;SDS011;24840;47.508;19.376;2022-11-15T13:42:16;27.50;;;23.40;;
39094;SDS011;24840;47.508;19.376;2022-11-15T13:44:56;26.48;;;22.90;;
39094;SDS011;24840;47.508;19.376;2022-11-15T13:47:29;23.58;;;21.05;;
39094;SDS011;24840;47.508;19.376;2022-11-15T13:49:57;27.02;;;23.38;;
39094;SDS011;24840;47.508;19.376;2022-11-15T13:52:25;24.73;;;21.25;;
39094;SDS011;24840;47.508;19.376;2022-11-15T13:55:04;28.38;;;23.17;;
39094;SDS011;24840;47.508;19.376;2022-11-15T14:00:29;30.88;;;25.65;;
39094;SDS011;24840;47.508;19.376;2022-11-15T14:03:10;29.15;;;22.85;;
39094;SDS011;24840;47.508;19.376;2022-11-15T14:06:08;31.75;;;25.08;;
39094;SDS011;24840;47.508;19.376;2022-11-15T14:08:33;27.63;;;22.50;;
39094;SDS011;24840;47.508;19.376;2022-11-15T14:11:20;33.63;;;26.88;;
39094;SDS011;24840;47.508;19.376;2022-11-15T14:19:10;27.77;;;22.70;;
39094;SDS011;24840;47.508;19.376;2022-11-15T14:27:39;41.38;;;31.52;;
39094;SDS011;24840;47.508;19.376;2022-11-15T14:30:16;35.78;;;29.67;;
39094;SDS011;24840;47.508;19.376;2022-11-15T14:32:46;30.00;;;24.88;;
39094;SDS011;24840;47.508;19.376;2022-11-15T14:35:15;29.98;;;24.67;;
39094;SDS011;24840;47.508;19.376;2022-11-15T14:37:49;25.27;;;21.95;;
39094;SDS011;24840;47.508;19.376;2022-11-15T14:40:18;35.05;;;25.65;;
39094;SDS011;24840;47.508;19.376;2022-11-15T14:42:47;73.25;;;31.35;;
39094;SDS011;24840;47.508;19.376;2022-11-15T14:45:16;29.85;;;24.90;;
39094;SDS011;24840;47.508;19.376;2022-11-15T14:47:48;31.13;;;23.67;;
39094;SDS011;24840;47.508;19.376;2022-11-15T14:50:15;30.92;;;23.17;;
39094;SDS011;24840;47.508;19.376;2022-11-15T14:52:43;30.48;;;24.42;;
39094;SDS011;24840;47.508;19.376;2022-11-15T14:55:34;29.17;;;23.75;;
39094;SDS011;24840;47.508;19.376;2022-11-15T14:58:04;27.58;;;21.55;;
39094;SDS011;24840;47.508;19.376;2022-11-15T15:00:35;25.95;;;20.95;;
39094;SDS011;24840;47.508;19.376;2022-11-15T15:03:03;22.38;;;19.30;;
39094;SDS011;24840;47.508;19.376;2022-11-15T15:08:00;20.33;;;17.98;;
39094;SDS011;24840;47.508;19.376;2022-11-15T15:10:27;18.20;;;16.30;;
39094;SDS011;24840;47.508;19.376;2022-11-15T15:13:05;21.15;;;18.20;;
39094;SDS011;24840;47.508;19.376;2022-11-15T15:15:36;21.48;;;17.15;;
39094;SDS011;24840;47.508;19.376;2022-11-15T15:18:03;20.73;;;18.27;;
39094;SDS011;24840;47.508;19.376;2022-11-15T15:20:33;23.45;;;19.67;;
39094;SDS011;24840;47.508;19.376;2022-11-15T15:23:00;23.67;;;19.98;;
39094;SDS011;24840;47.508;19.376;2022-11-15T15:25:33;21.67;;;19.33;;
39094;SDS011;24840;47.508;19.376;2022-11-15T15:28:01;27.67;;;21.27;;
39094;SDS011;24840;47.508;19.376;2022-11-15T15:30:27;42.55;;;32.08;;
39094;SDS011;24840;47.508;19.376;2022-11-15T15:32:55;40.42;;;29.08;;
39094;SDS011;24840;47.508;19.376;2022-11-15T15:35:22;58.35;;;40.50;;
39094;SDS011;24840;47.508;19.376;2022-11-15T15:37:49;30.13;;;26.08;;
39094;SDS011;24840;47.508;19.376;2022-11-15T15:40:17;31.80;;;25.85;;
39094;SDS011;24840;47.508;19.376;2022-11-15T15:42:45;34.25;;;25.27;;
39094;SDS011;24840;47.508;19.376;2022-11-15T15:45:12;31.45;;;24.65;;
39094;SDS011;24840;47.508;19.376;2022-11-15T15:47:38;32.83;;;22.90;;
39094;SDS011;24840;47.508;19.376;2022-11-15T15:50:12;28.25;;;24.13;;
39094;SDS011;24840;47.508;19.376;2022-11-15T15:52:45;25.08;;;21.45;;
39094;SDS011;24840;47.508;19.376;2022-11-15T15:55:12;31.88;;;21.73;;
39094;SDS011;24840;47.508;19.376;2022-11-15T15:57:38;30.33;;;23.88;;
39094;SDS011;24840;47.508;19.376;2022-11-15T16:00:04;30.53;;;25.13;;
39094;SDS011;24840;47.508;19.376;2022-11-15T16:02:31;34.97;;;26.80;;
39094;SDS011;24840;47.508;19.376;2022-11-15T16:04:57;37.78;;;27.35;;
39094;SDS011;24840;47.508;19.376;2022-11-15T16:07:23;37.78;;;29.23;;
39094;SDS011;24840;47.508;19.376;2022-11-15T16:09:49;37.72;;;27.38;;
39094;SDS011;24840;47.508;19.376;2022-11-15T16:12:25;41.78;;;30.98;;
39094;SDS011;24840;47.508;19.376;2022-11-15T16:14:52;43.47;;;31.67;;
39094;SDS011;24840;47.508;19.376;2022-11-15T16:17:18;45.63;;;31.15;;
39094;SDS011;24840;47.508;19.376;2022-11-15T16:19:46;58.88;;;34.40;;
39094;SDS011;24840;47.508;19.376;2022-11-15T16:22:12;52.35;;;33.72;;
39094;SDS011;24840;47.508;19.376;2022-11-15T16:24:38;46.03;;;31.13;;
39094;SDS011;24840;47.508;19.376;2022-11-15T16:27:05;50.42;;;35.78;;
39094;SDS011;24840;47.508;19.376;2022-11-15T16:29:31;50.67;;;34.58;;
39094;SDS011;24840;47.508;19.376;2022-11-15T16:31:56;50.90;;;34.15;;
39094;SDS011;24840;47.508;19.376;2022-11-15T16:34:22;52.10;;;35.97;;
39094;SDS011;24840;47.508;19.376;2022-11-15T16:36:49;54.78;;;35.13;;
39094;SDS011;24840;47.508;19.376;2022-11-15T16:39:16;54.03;;;37.63;;
39094;SDS011;24840;47.508;19.376;2022-11-15T16:41:43;56.50;;;38.92;;
39094;SDS011;24840;47.508;19.376;2022-11-15T16:44:12;53.65;;;37.10;;
39094;SDS011;24840;47.508;19.376;2022-11-15T16:46:40;65.00;;;39.65;;